Time,TemperatureF,DewpointF,PressureIn,WindDirection,WindDirectionDegrees,WindSpeedMPH,WindSpeedGustMPH,Humidity,HourlyPrecipIn,Conditions,Clouds,dailyrainin,SoftwareType,DateUTC
2013-09-10 00:01:00,66.4,65.8,17.72,WSW,254,0.0,0.0,98,0.00,,---,0.00,VWS V14.01,2013-09-10 04:01:00,
2013-09-10 00:02:00,66.4,65.8,17.72,WSW,254,0.0,0.0,98,0.00,,---,0.00,VWS V14.01,2013-09-10 04:02:00,
2013-09-10 00:07:00,66.2,65.6,17.72,WSW,254,0.0,0.0,98,0.00,,---,0.00,VWS V14.01,2013-09-10 04:07:00,
2013-09-10 00:12:00,66.2,65.6,17.72,WSW,254,0.0,0.0,98,0.00,,---,0.00,VWS V14.01,2013-09-10 04:12:00,
2013-09-10 00:17:00,66.0,65.4,17.72,WSW,254,0.0,0.0,98,0.00,,---,0.00,VWS V14.01,2013-09-10 04:17:00,
2013-09-10 00:22:00,66.0,65.4,17.72,WSW,254,0.0,0.0,98,0.00,,---,0.00,VWS V14.01,2013-09-10 04:22:00,
2013-09-10 00:27:00,66.0,65.4,17.72,WSW,254,0.0,0.0,98,0.00,,---,0.00,VWS V14.01,2013-09-10 04:27:00,
2013-09-10 00:32:00,66.0,65.4,17.72,WSW,254,0.0,0.0,98,0.00,,---,0.00,VWS V14.01,2013-09-10 04:32:00,
2013-09-10 00:37:00,66.0,65.4,17.72,WSW,254,0.0,0.0,98,0.00,,---,0.00,VWS V14.01,2013-09-10 04:37:00,
2013-09-10 00:42:00,65.8,65.3,17.72,WSW,254,0.0,0.0,98,0.00,,---,0.00,VWS V14.01,2013-09-10 04:42:00,
2013-09-10 00:47:00,65.8,65.3,17.72,WSW,254,0.0,0.0,98,0.00,,---,0.00,VWS V14.01,2013-09-10 04:47:00,
2013-09-10 00:52:00,65.7,65.1,17.72,WSW,254,0.0,0.0,98,0.00,,---,0.00,VWS V14.01,2013-09-10 04:52:00,
2013-09-10 00:57:00,65.5,64.9,17.72,WSW,254,0.0,0.0,98,0.00,,---,0.00,VWS V14.01,2013-09-10 04:57:00,
2013-09-10 01:02:00,65.5,64.9,17.72,WSW,254,0.0,0.0,98,0.00,,---,0.00,VWS V14.01,2013-09-10 05:02:00,
2013-09-10 01:07:00,65.3,64.7,17.72,WSW,254,0.0,0.0,98,0.00,,---,0.00,VWS V14.01,2013-09-10 05:07:00,
2013-09-10 01:12:00,65.3,64.7,17.72,WSW,254,0.0,0.0,98,0.00,,---,0.00,VWS V14.01,2013-09-10 05:12:00,
2013-09-10 01:17:00,65.1,64.5,17.72,WSW,254,0.0,0.0,98,0.00,,---,0.00,VWS V14.01,2013-09-10 05:17:00,
2013-09-10 01:22:00,65.1,64.5,17.72,WSW,254,0.0,0.0,98,0.00,,---,0.00,VWS V14.01,2013-09-10 05:22:00,
2013-09-10 01:27:00,64.9,64.4,17.72,WSW,254,0.0,0.0,98,0.00,,---,0.00,VWS V14.01,2013-09-10 05:27:00,
2013-09-10 01:32:00,64.9,64.4,17.72,WSW,254,0.0,0.0,98,0.00,,---,0.00,VWS V14.01,2013-09-10 05:32:00,
2013-09-10 01:37:00,64.8,64.2,17.72,WSW,254,0.0,0.0,98,0.00,,---,0.00,VWS V14.01,2013-09-10 05:37:00,
2013-09-10 01:42:00,64.8,64.2,17.72,WSW,254,0.0,0.0,98,0.00,,---,0.00,VWS V14.01,2013-09-10 05:42:00,
2013-09-10 01:47:00,64.8,64.2,17.72,WSW,254,0.0,0.0,98,0.00,,---,0.00,VWS V14.01,2013-09-10 05:47:00,
2013-09-10 01:52:00,64.6,64.0,17.72,WSW,254,0.0,0.0,98,0.00,,---,0.00,VWS V14.01,2013-09-10 05:52:00,
2013-09-10 01:57:00,64.4,63.8,17.72,WSW,254,0.0,0.0,98,0.00,,---,0.00,VWS V14.01,2013-09-10 05:57:00,
2013-09-10 02:02:00,64.4,63.8,17.72,WSW,254,0.0,0.0,98,0.00,,---,0.00,VWS V14.01,2013-09-10 06:02:00,
2013-09-10 02:07:00,64.4,63.8,17.72,WSW,254,0.0,0.0,98,0.00,,---,0.00,VWS V14.01,2013-09-10 06:07:00,
2013-09-10 02:12:00,64.4,63.8,17.72,WSW,254,0.0,0.0,98,0.00,,---,0.00,VWS V14.01,2013-09-10 06:12:00,
2013-09-10 02:17:00,64.4,63.8,17.72,WSW,254,0.0,0.0,98,0.00,,---,0.00,VWS V14.01,2013-09-10 06:17:00,
2013-09-10 02:22:00,64.2,63.7,17.72,WSW,254,0.0,0.0,98,0.00,,---,0.00,VWS V14.01,2013-09-10 06:22:00,
2013-09-10 02:27:00,64.2,63.7,17.72,WSW,254,0.0,0.0,98,0.00,,---,0.00,VWS V14.01,2013-09-10 06:27:00,
2013-09-10 02:31:00,64.0,63.5,17.72,WSW,254,0.0,0.0,98,0.00,,---,0.00,VWS V14.01,2013-09-10 06:31:00,
2013-09-10 02:37:00,64.0,63.5,17.72,WSW,254,0.0,0.0,98,0.00,,---,0.00,VWS V14.01,2013-09-10 06:37:00,
2013-09-10 02:42:00,64.0,63.5,17.72,WSW,254,0.0,0.0,98,0.00,,---,0.00,VWS V14.01,2013-09-10 06:42:00,
2013-09-10 02:47:00,64.0,63.5,17.72,WSW,254,0.0,0.0,98,0.00,,---,0.00,VWS V14.01,2013-09-10 06:47:00,
2013-09-10 02:51:00,63.9,63.3,17.72,WSW,254,0.0,0.0,98,0.00,,---,0.00,VWS V14.01,2013-09-10 06:51:00,
2013-09-10 02:56:00,63.9,63.3,17.72,WSW,254,0.0,0.0,98,0.00,,---,0.00,VWS V14.01,2013-09-10 06:56:00,
2013-09-10 03:01:00,63.7,63.1,17.72,WSW,254,0.0,0.0,98,0.00,,---,0.00,VWS V14.01,2013-09-10 07:01:00,
2013-09-10 03:06:00,63.7,63.1,17.72,WSW,254,0.0,0.0,98,0.00,,---,0.00,VWS V14.01,2013-09-10 07:06:00,
2013-09-10 03:11:00,63.7,63.1,17.72,WSW,254,0.0,0.0,98,0.00,,---,0.00,VWS V14.01,2013-09-10 07:11:00,
2013-09-10 03:16:00,63.7,63.1,17.72,WSW,254,0.0,0.0,98,0.00,,---,0.00,VWS V14.01,2013-09-10 07:16:00,
2013-09-10 03:21:00,63.5,62.9,17.72,WSW,254,0.0,0.0,98,0.00,,---,0.00,VWS V14.01,2013-09-10 07:21:00,
2013-09-10 03:26:00,63.5,62.9,17.72,WSW,254,0.0,0.0,98,0.00,,---,0.00,VWS V14.01,2013-09-10 07:26:00,
2013-09-10 03:31:00,63.3,62.8,17.72,WSW,254,0.0,0.0,98,0.00,,---,0.00,VWS V14.01,2013-09-10 07:31:00,
2013-09-10 03:36:00,63.3,62.8,17.72,WSW,254,0.0,0.0,98,0.00,,---,0.00,VWS V14.01,2013-09-10 07:36:00,
2013-09-10 03:41:00,63.1,62.6,17.72,WSW,254,0.0,0.0,98,0.00,,---,0.00,VWS V14.01,2013-09-10 07:41:00,
2013-09-10 03:46:00,63.1,62.6,17.72,WSW,254,0.0,0.0,98,0.00,,---,0.00,VWS V14.01,2013-09-10 07:46:00,
2013-09-10 03:51:00,63.0,62.4,17.72,WSW,254,0.0,0.0,98,0.00,,---,0.00,VWS V14.01,2013-09-10 07:51:00,
2013-09-10 03:56:00,63.0,62.4,17.72,WSW,254,0.0,0.0,98,0.00,,---,0.00,VWS V14.01,2013-09-10 07:56:00,
2013-09-10 04:01:00,63.0,62.4,17.72,WSW,254,0.0,0.0,98,0.00,,---,0.00,VWS V14.01,2013-09-10 08:01:00,
2013-09-10 04:06:00,63.0,62.4,17.72,WSW,254,0.0,0.0,98,0.00,,---,0.00,VWS V14.01,2013-09-10 08:06:00,
2013-09-10 04:11:00,63.0,62.4,17.72,WSW,254,0.0,0.0,98,0.00,,---,0.00,VWS V14.01,2013-09-10 08:11:00,
2013-09-10 04:16:00,63.0,62.4,17.72,WSW,254,0.0,0.0,98,0.00,,---,0.00,VWS V14.01,2013-09-10 08:16:00,
2013-09-10 04:21:00,63.0,62.4,17.72,WSW,254,0.0,0.0,98,0.00,,---,0.00,VWS V14.01,2013-09-10 08:21:00,
2013-09-10 04:26:00,63.0,62.4,17.72,WSW,254,0.0,0.0,98,0.00,,---,0.00,VWS V14.01,2013-09-10 08:26:00,
2013-09-10 04:31:00,62.8,62.2,17.72,WSW,254,0.0,0.0,98,0.00,,---,0.00,VWS V14.01,2013-09-10 08:31:00,
2013-09-10 04:36:00,62.8,62.2,17.72,WSW,254,0.0,0.0,98,0.00,,---,0.00,VWS V14.01,2013-09-10 08:36:00,
2013-09-10 04:41:00,62.8,62.2,17.72,WSW,254,0.0,0.0,98,0.00,,---,0.00,VWS V14.01,2013-09-10 08:41:00,
2013-09-10 04:46:00,62.6,62.0,17.72,WSW,254,0.0,0.0,98,0.00,,---,0.00,VWS V14.01,2013-09-10 08:46:00,
2013-09-10 04:51:00,62.6,62.0,17.72,WSW,254,0.0,0.0,98,0.00,,---,0.00,VWS V14.01,2013-09-10 08:51:00,
2013-09-10 04:56:00,62.6,62.0,17.72,WSW,254,0.0,0.0,98,0.00,,---,0.00,VWS V14.01,2013-09-10 08:56:00,
2013-09-10 05:01:00,62.4,61.8,17.72,WSW,254,0.0,0.0,98,0.00,,---,0.00,VWS V14.01,2013-09-10 09:01:00,
2013-09-10 05:06:00,62.4,61.8,17.72,WSW,254,0.0,0.0,98,0.00,,---,0.00,VWS V14.01,2013-09-10 09:06:00,
2013-09-10 05:11:00,62.2,61.7,17.72,WSW,254,0.0,0.0,98,0.00,,---,0.00,VWS V14.01,2013-09-10 09:11:00,
2013-09-10 05:16:00,62.2,61.7,17.72,WSW,254,0.0,0.0,98,0.00,,---,0.00,VWS V14.01,2013-09-10 09:16:00,
2013-09-10 05:21:00,62.1,61.5,17.72,WSW,254,0.0,0.0,98,0.00,,---,0.00,VWS V14.01,2013-09-10 09:21:00,
2013-09-10 05:26:00,62.1,61.5,17.72,WSW,254,0.0,0.0,98,0.00,,---,0.00,VWS V14.01,2013-09-10 09:26:00,
2013-09-10 05:31:00,62.1,61.5,17.72,WSW,254,0.0,0.0,98,0.00,,---,0.00,VWS V14.01,2013-09-10 09:31:00,
2013-09-10 05:36:00,62.1,61.5,17.72,WSW,254,0.0,0.0,98,0.00,,---,0.00,VWS V14.01,2013-09-10 09:36:00,
2013-09-10 05:41:00,61.9,61.3,17.72,WSW,254,0.0,0.0,98,0.00,,---,0.00,VWS V14.01,2013-09-10 09:41:00,
2013-09-10 05:46:00,61.9,61.3,17.72,WSW,254,0.0,0.0,98,0.00,,---,0.00,VWS V14.01,2013-09-10 09:46:00,
2013-09-10 05:51:00,61.9,61.3,17.72,WSW,254,0.0,0.0,98,0.00,,---,0.00,VWS V14.01,2013-09-10 09:51:00,
2013-09-10 05:56:00,61.9,61.3,17.72,WSW,254,0.0,0.0,98,0.00,,---,0.00,VWS V14.01,2013-09-10 09:56:00,
2013-09-10 06:01:00,61.9,61.3,17.72,WSW,254,0.0,0.0,98,0.00,,---,0.00,VWS V14.01,2013-09-10 10:01:00,
2013-09-10 06:06:00,61.9,61.3,17.72,WSW,254,0.0,0.0,98,0.00,,---,0.00,VWS V14.01,2013-09-10 10:06:00,
2013-09-10 06:11:00,61.9,61.3,17.72,WSW,254,0.0,0.0,98,0.00,,---,0.00,VWS V14.01,2013-09-10 10:11:00,
2013-09-10 06:16:00,61.9,61.3,17.72,WSW,254,0.0,0.0,98,0.00,,---,0.00,VWS V14.01,2013-09-10 10:16:00,
2013-09-10 06:21:00,61.9,61.3,17.72,WSW,254,0.0,0.0,98,0.00,,---,0.00,VWS V14.01,2013-09-10 10:21:00,
2013-09-10 06:26:00,61.7,61.1,17.72,WSW,254,0.0,0.0,98,0.00,,---,0.00,VWS V14.01,2013-09-10 10:26:00,
2013-09-10 06:31:00,61.7,61.1,17.72,WSW,254,0.0,0.0,98,0.00,,---,0.00,VWS V14.01,2013-09-10 10:31:00,
2013-09-10 06:36:00,61.9,61.3,17.72,WSW,254,0.0,0.0,98,0.00,,---,0.00,VWS V14.01,2013-09-10 10:36:00,
2013-09-10 06:41:00,61.7,61.1,17.72,WSW,254,0.0,0.0,98,0.00,,---,0.00,VWS V14.01,2013-09-10 10:41:00,
2013-09-10 06:46:00,61.7,61.1,17.72,WSW,254,0.0,0.0,98,0.00,,---,0.00,VWS V14.01,2013-09-10 10:46:00,
2013-09-10 06:51:00,61.5,61.0,17.72,WSW,254,0.0,0.0,98,0.00,,---,0.00,VWS V14.01,2013-09-10 10:51:00,
2013-09-10 06:56:00,61.5,61.0,17.72,WSW,254,0.0,0.0,98,0.00,,---,0.00,VWS V14.01,2013-09-10 10:56:00,
2013-09-10 07:01:00,61.5,61.0,17.72,WSW,254,0.0,0.0,98,0.00,,---,0.00,VWS V14.01,2013-09-10 11:01:00,
2013-09-10 07:06:00,61.5,61.0,17.72,WSW,254,0.0,0.0,98,0.00,,---,0.00,VWS V14.01,2013-09-10 11:06:00,
2013-09-10 07:11:00,61.5,61.0,17.72,WSW,254,0.0,0.0,98,0.00,,---,0.00,VWS V14.01,2013-09-10 11:11:00,
2013-09-10 07:16:00,61.5,61.0,17.72,WSW,254,0.0,0.0,98,0.00,,---,0.00,VWS V14.01,2013-09-10 11:16:00,
2013-09-10 07:21:00,61.5,61.0,17.72,WSW,254,0.0,0.0,98,0.00,,---,0.00,VWS V14.01,2013-09-10 11:21:00,
2013-09-10 07:26:00,61.5,61.0,17.72,WSW,254,0.0,0.0,98,0.00,,---,0.00,VWS V14.01,2013-09-10 11:26:00,
2013-09-10 07:31:00,61.7,61.1,17.72,WSW,254,0.0,0.0,98,0.00,,---,0.00,VWS V14.01,2013-09-10 11:31:00,
2013-09-10 07:36:00,61.7,61.1,17.72,WSW,254,0.0,0.0,98,0.00,,---,0.00,VWS V14.01,2013-09-10 11:36:00,
2013-09-10 07:41:00,61.9,61.3,17.72,WSW,254,0.0,0.0,98,0.00,,---,0.00,VWS V14.01,2013-09-10 11:41:00,
2013-09-10 07:46:00,62.1,61.5,17.72,WSW,254,0.0,0.0,98,0.00,,---,0.00,VWS V14.01,2013-09-10 11:46:00,
2013-09-10 07:51:00,62.2,61.7,17.72,WSW,254,0.0,0.0,98,0.00,,---,0.00,VWS V14.01,2013-09-10 11:51:00,
2013-09-10 07:56:00,62.4,61.8,17.72,WSW,254,0.0,0.0,98,0.00,,---,0.00,VWS V14.01,2013-09-10 11:56:00,
2013-09-10 08:01:00,62.6,62.0,17.72,WSW,254,0.0,0.0,98,0.00,,---,0.00,VWS V14.01,2013-09-10 12:01:00,
2013-09-10 08:06:00,63.0,62.4,17.72,WSW,254,0.0,0.0,98,0.00,,---,0.00,VWS V14.01,2013-09-10 12:06:00,
2013-09-10 08:11:00,63.0,62.4,17.72,WSW,254,0.0,0.0,98,0.00,,---,0.00,VWS V14.01,2013-09-10 12:11:00,
2013-09-10 08:16:00,63.1,62.6,17.72,WSW,254,0.0,0.0,98,0.00,,---,0.00,VWS V14.01,2013-09-10 12:16:00,
2013-09-10 08:21:00,63.1,62.6,17.72,WSW,254,0.0,0.0,98,0.00,,---,0.00,VWS V14.01,2013-09-10 12:21:00,
2013-09-10 08:26:00,63.3,62.8,17.72,WSW,254,0.0,0.0,98,0.00,,---,0.00,VWS V14.01,2013-09-10 12:26:00,
2013-09-10 08:31:00,63.5,62.9,17.72,WSW,254,0.0,0.0,98,0.00,,---,0.00,VWS V14.01,2013-09-10 12:31:00,
2013-09-10 08:36:00,63.9,63.3,17.72,WSW,254,0.0,0.0,98,0.00,,---,0.00,VWS V14.01,2013-09-10 12:36:00,
2013-09-10 08:41:00,64.2,63.7,17.72,WSW,254,0.0,0.0,98,0.00,,---,0.00,VWS V14.01,2013-09-10 12:41:00,
2013-09-10 08:46:00,64.8,64.2,17.72,WSW,254,0.0,0.0,98,0.00,,---,0.00,VWS V14.01,2013-09-10 12:46:00,
2013-09-10 08:51:00,66.0,65.4,17.72,WSW,254,0.0,0.0,98,0.00,,---,0.00,VWS V14.01,2013-09-10 12:51:00,
2013-09-10 08:56:00,68.4,67.8,17.72,WSW,254,0.0,0.0,98,0.00,,---,0.00,VWS V14.01,2013-09-10 12:56:00,
2013-09-10 09:01:00,71.4,70.8,17.72,WSW,254,0.0,0.0,98,0.00,,---,0.00,VWS V14.01,2013-09-10 13:01:00,
2013-09-10 09:06:00,74.3,73.7,17.72,WSW,254,0.0,0.0,98,0.00,,---,0.00,VWS V14.01,2013-09-10 13:06:00,
2013-09-10 09:11:00,76.8,76.2,17.72,WSW,254,0.0,0.0,98,0.00,,---,0.00,VWS V14.01,2013-09-10 13:11:00,
2013-09-10 09:16:00,77.7,77.1,17.72,WSW,254,0.0,0.0,98,0.00,,---,0.00,VWS V14.01,2013-09-10 13:16:00,
2013-09-10 09:21:00,76.8,76.2,17.72,WSW,254,0.0,0.0,98,0.00,,---,0.00,VWS V14.01,2013-09-10 13:21:00,
2013-09-10 09:26:00,76.8,75.9,17.72,WSW,254,0.0,0.0,97,0.00,,---,0.00,VWS V14.01,2013-09-10 13:26:00,
2013-09-10 09:31:00,76.3,74.1,17.72,WSW,254,0.0,0.0,93,0.00,,---,0.00,VWS V14.01,2013-09-10 13:31:00,
2013-09-10 09:36:00,74.7,72.2,17.72,WSW,254,0.0,0.0,92,0.00,,---,0.00,VWS V14.01,2013-09-10 13:36:00,
2013-09-10 09:41:00,73.4,70.9,17.72,WSW,251,0.0,0.0,92,0.00,,---,0.00,VWS V14.01,2013-09-10 13:41:00,
2013-09-10 09:46:00,73.6,71.1,17.72,WSW,251,0.0,0.0,92,0.00,,---,0.00,VWS V14.01,2013-09-10 13:46:00,
2013-09-10 09:51:00,73.4,70.6,17.72,WSW,251,2.2,2.2,91,0.00,,---,0.00,VWS V14.01,2013-09-10 13:51:00,
2013-09-10 09:56:00,73.6,70.8,17.72,WSW,251,0.0,2.2,91,0.00,,---,0.00,VWS V14.01,2013-09-10 13:56:00,
2013-09-10 10:01:00,73.4,70.3,17.72,WSW,251,0.0,0.0,90,0.00,,---,0.00,VWS V14.01,2013-09-10 14:01:00,
2013-09-10 10:06:00,73.8,70.3,17.72,WSW,251,2.2,2.2,89,0.00,,---,0.00,VWS V14.01,2013-09-10 14:06:00,
2013-09-10 10:11:00,73.8,70.0,17.72,SW,235,4.0,4.0,88,0.00,,---,0.00,VWS V14.01,2013-09-10 14:11:00,
2013-09-10 10:16:00,74.1,70.0,17.72,ENE,78,2.2,2.7,87,0.00,,---,0.00,VWS V14.01,2013-09-10 14:16:00,
2013-09-10 10:21:00,74.5,69.7,17.72,East,96,2.2,2.7,85,0.00,,---,0.00,VWS V14.01,2013-09-10 14:21:00,
2013-09-10 10:26:00,74.8,70.0,17.72,East,100,2.2,3.1,85,0.00,,---,0.00,VWS V14.01,2013-09-10 14:26:00,
2013-09-10 10:31:00,75.0,70.2,17.72,East,100,2.7,2.7,85,0.00,,---,0.00,VWS V14.01,2013-09-10 14:31:00,
2013-09-10 10:36:00,75.4,69.9,17.72,East,98,0.0,0.0,83,0.00,,---,0.00,VWS V14.01,2013-09-10 14:36:00,
2013-09-10 10:41:00,75.7,69.9,17.72,East,98,0.0,2.7,82,0.00,,---,0.00,VWS V14.01,2013-09-10 14:41:00,
2013-09-10 10:46:00,76.3,69.7,17.72,East,98,3.1,3.1,80,0.00,,---,0.00,VWS V14.01,2013-09-10 14:46:00,
2013-09-10 10:51:00,76.5,69.5,17.72,East,98,0.0,2.7,79,0.00,,---,0.00,VWS V14.01,2013-09-10 14:51:00,
2013-09-10 10:56:00,77.0,69.2,17.72,East,98,2.7,2.7,77,0.00,,---,0.00,VWS V14.01,2013-09-10 14:56:00,
2013-09-10 11:01:00,77.2,69.0,17.72,East,98,0.0,2.7,76,0.00,,---,0.00,VWS V14.01,2013-09-10 15:01:00,
2013-09-10 11:06:00,77.5,69.4,17.72,East,101,3.1,3.6,76,0.00,,---,0.00,VWS V14.01,2013-09-10 15:06:00,
2013-09-10 11:11:00,77.7,69.2,17.72,ESE,102,3.1,3.1,75,0.00,,---,0.00,VWS V14.01,2013-09-10 15:11:00,
2013-09-10 11:16:00,78.1,69.5,17.72,ESE,102,2.2,2.7,75,0.00,,---,0.00,VWS V14.01,2013-09-10 15:16:00,
2013-09-10 11:21:00,78.6,70.0,17.72,ESE,102,2.7,3.1,75,0.00,,---,0.00,VWS V14.01,2013-09-10 15:21:00,
2013-09-10 11:26:00,78.8,69.4,17.72,ESE,112,2.2,2.7,73,0.00,,---,0.00,VWS V14.01,2013-09-10 15:26:00,
2013-09-10 11:31:00,79.0,69.2,17.72,East,87,3.1,4.0,72,0.00,,---,0.00,VWS V14.01,2013-09-10 15:31:00,
2013-09-10 11:36:00,79.3,69.5,17.72,East,87,2.7,3.6,72,0.00,,---,0.00,VWS V14.01,2013-09-10 15:36:00,
2013-09-10 11:41:00,79.9,70.1,17.72,East,98,0.0,0.0,72,0.00,,---,0.00,VWS V14.01,2013-09-10 15:41:00,
2013-09-10 11:46:00,80.1,70.2,17.72,East,98,2.7,2.7,72,0.00,,---,0.00,VWS V14.01,2013-09-10 15:46:00,
2013-09-10 11:51:00,80.4,69.8,17.72,East,86,2.2,2.2,70,0.00,,---,0.00,VWS V14.01,2013-09-10 15:51:00,
2013-09-10 11:56:00,80.6,69.5,17.72,East,87,0.0,2.7,69,0.00,,---,0.00,VWS V14.01,2013-09-10 15:56:00,
2013-09-10 12:01:00,81.3,70.2,17.72,East,87,2.7,2.7,69,0.00,,---,0.00,VWS V14.01,2013-09-10 16:01:00,
2013-09-10 12:06:00,81.3,69.3,17.72,NE,45,3.1,3.1,67,0.00,,---,0.00,VWS V14.01,2013-09-10 16:06:00,
2013-09-10 12:11:00,81.7,69.2,17.72,ESE,119,4.0,5.4,66,0.00,,---,0.00,VWS V14.01,2013-09-10 16:11:00,
2013-09-10 12:16:00,81.9,68.9,17.72,East,84,3.1,3.1,65,0.00,,---,0.00,VWS V14.01,2013-09-10 16:16:00,
2013-09-10 12:21:00,82.0,68.7,17.72,East,84,2.7,2.7,64,0.00,,---,0.00,VWS V14.01,2013-09-10 16:21:00,
2013-09-10 12:26:00,82.6,69.2,17.72,East,86,0.0,3.6,64,0.00,,---,0.00,VWS V14.01,2013-09-10 16:26:00,
2013-09-10 12:31:00,81.9,68.5,17.72,ENE,78,2.7,2.7,64,0.00,,---,0.00,VWS V14.01,2013-09-10 16:31:00,
2013-09-10 12:36:00,82.4,68.6,17.72,ENE,78,2.7,2.7,63,0.00,,---,0.00,VWS V14.01,2013-09-10 16:36:00,
2013-09-10 12:41:00,82.8,68.4,17.72,East,97,2.2,3.1,62,0.00,,---,0.00,VWS V14.01,2013-09-10 16:41:00,
2013-09-10 12:46:00,83.1,68.8,17.72,East,97,2.7,2.7,62,0.00,,---,0.00,VWS V14.01,2013-09-10 16:46:00,
2013-09-10 12:51:00,83.3,68.9,17.72,East,84,0.0,2.7,62,0.00,,---,0.00,VWS V14.01,2013-09-10 16:51:00,
2013-09-10 12:56:00,83.3,68.0,17.72,East,84,2.7,2.7,60,0.00,,---,0.00,VWS V14.01,2013-09-10 16:56:00,
2013-09-10 13:01:00,83.7,68.3,17.72,ENE,68,3.6,3.6,60,0.00,,---,0.00,VWS V14.01,2013-09-10 17:01:00,
2013-09-10 13:06:00,83.8,68.5,17.72,East,94,2.7,2.7,60,0.00,,---,0.00,VWS V14.01,2013-09-10 17:06:00,
2013-09-10 13:11:00,84.0,68.2,17.72,East,94,3.6,3.6,59,0.00,,---,0.00,VWS V14.01,2013-09-10 17:11:00,
2013-09-10 13:16:00,84.0,69.1,17.72,East,88,2.2,3.1,61,0.00,,---,0.00,VWS V14.01,2013-09-10 17:16:00,
2013-09-10 13:21:00,83.8,67.0,17.72,ESE,110,0.0,2.7,57,0.00,,---,0.00,VWS V14.01,2013-09-10 17:21:00,
2013-09-10 13:26:00,84.0,67.2,17.72,ENE,69,0.0,2.7,57,0.00,,---,0.00,VWS V14.01,2013-09-10 17:26:00,
2013-09-10 13:31:00,84.4,67.0,17.72,East,98,0.0,2.2,56,0.00,,---,0.00,VWS V14.01,2013-09-10 17:31:00,
2013-09-10 13:36:00,84.6,67.2,17.72,East,98,2.7,2.7,56,0.00,,---,0.00,VWS V14.01,2013-09-10 17:36:00,
2013-09-10 13:41:00,84.6,66.6,17.72,East,100,2.7,3.1,55,0.00,,---,0.00,VWS V14.01,2013-09-10 17:41:00,
2013-09-10 13:46:00,84.7,66.8,17.72,ESE,118,0.0,2.2,55,0.00,,---,0.00,VWS V14.01,2013-09-10 17:46:00,
2013-09-10 13:51:00,84.9,67.5,17.72,ESE,112,2.2,3.1,56,0.00,,---,0.00,VWS V14.01,2013-09-10 17:51:00,
2013-09-10 13:56:00,84.9,67.0,17.72,ENE,69,0.0,0.0,55,0.00,,---,0.00,VWS V14.01,2013-09-10 17:56:00,
2013-09-10 14:01:00,85.3,65.7,17.72,ESE,122,3.6,3.6,52,0.00,,---,0.00,VWS V14.01,2013-09-10 18:01:00,
2013-09-10 14:06:00,85.3,65.7,17.72,ESE,116,0.0,0.0,52,0.00,,---,0.00,VWS V14.01,2013-09-10 18:06:00,
2013-09-10 14:11:00,85.5,66.4,17.72,ENE,75,2.7,2.7,53,0.00,,---,0.00,VWS V14.01,2013-09-10 18:11:00,
2013-09-10 14:16:00,85.6,67.6,17.72,ENE,75,0.0,0.0,55,0.00,,---,0.00,VWS V14.01,2013-09-10 18:16:00,
2013-09-10 14:21:00,85.3,65.1,17.72,East,85,2.7,4.0,51,0.00,,---,0.00,VWS V14.01,2013-09-10 18:21:00,
2013-09-10 14:26:00,85.5,64.7,17.72,East,82,2.7,2.7,50,0.00,,---,0.00,VWS V14.01,2013-09-10 18:26:00,
2013-09-10 14:31:00,85.6,64.9,17.72,East,83,2.2,2.7,50,0.00,,---,0.00,VWS V14.01,2013-09-10 18:31:00,
2013-09-10 14:36:00,85.6,64.3,17.72,East,87,2.2,2.7,49,0.00,,---,0.00,VWS V14.01,2013-09-10 18:36:00,
2013-09-10 14:41:00,85.6,63.1,17.72,SSE,156,2.7,2.7,47,0.00,,---,0.00,VWS V14.01,2013-09-10 18:41:00,
2013-09-10 14:46:00,85.5,63.5,17.72,ENE,72,3.1,3.1,48,0.00,,---,0.00,VWS V14.01,2013-09-10 18:46:00,
2013-09-10 14:51:00,85.6,64.9,17.72,SW,232,2.7,2.7,50,0.00,,---,0.00,VWS V14.01,2013-09-10 18:51:00,
2013-09-10 14:56:00,85.8,65.6,17.72,SW,216,0.0,2.7,51,0.00,,---,0.00,VWS V14.01,2013-09-10 18:56:00,
2013-09-10 15:01:00,85.8,65.1,17.72,East,91,2.2,2.7,50,0.00,,---,0.00,VWS V14.01,2013-09-10 19:01:00,
2013-09-10 15:06:00,85.6,66.0,17.72,SSE,160,2.7,2.7,52,0.00,,---,0.00,VWS V14.01,2013-09-10 19:06:00,
2013-09-10 15:11:00,85.6,66.0,17.72,ESE,121,3.1,3.1,52,0.00,,---,0.00,VWS V14.01,2013-09-10 19:11:00,
2013-09-10 15:16:00,85.5,66.9,17.72,SSE,159,3.1,4.5,54,0.00,,---,0.00,VWS V14.01,2013-09-10 19:16:00,
2013-09-10 15:21:00,84.9,66.4,17.72,South,183,2.2,2.7,54,0.00,,---,0.00,VWS V14.01,2013-09-10 19:21:00,
2013-09-10 15:26:00,85.3,66.2,17.72,SSW,205,2.7,2.7,53,0.00,,---,0.00,VWS V14.01,2013-09-10 19:26:00,
2013-09-10 15:31:00,85.5,66.9,17.72,South,179,0.0,2.2,54,0.00,,---,0.00,VWS V14.01,2013-09-10 19:31:00,
2013-09-10 15:36:00,85.1,67.7,17.72,SW,216,2.2,2.2,56,0.00,,---,0.00,VWS V14.01,2013-09-10 19:36:00,
2013-09-10 15:41:00,84.7,66.3,17.72,SSW,206,0.0,0.0,54,0.00,,---,0.00,VWS V14.01,2013-09-10 19:41:00,
2013-09-10 15:46:00,85.1,67.7,17.72,SSW,206,0.0,0.0,56,0.00,,---,0.00,VWS V14.01,2013-09-10 19:46:00,
2013-09-10 15:51:00,84.9,67.0,17.72,SE,137,3.6,3.6,55,0.00,,---,0.00,VWS V14.01,2013-09-10 19:51:00,
2013-09-10 15:56:00,84.7,66.8,17.72,South,190,3.1,3.6,55,0.00,,---,0.00,VWS V14.01,2013-09-10 19:56:00,
2013-09-10 16:01:00,84.6,66.1,17.72,SSE,149,4.5,4.5,54,0.00,,---,0.00,VWS V14.01,2013-09-10 20:01:00,
2013-09-10 16:06:00,84.6,66.1,17.72,NNE,25,2.2,4.0,54,0.00,,---,0.00,VWS V14.01,2013-09-10 20:06:00,
2013-09-10 16:11:00,84.7,66.8,17.72,NNE,25,0.0,2.2,55,0.00,,---,0.00,VWS V14.01,2013-09-10 20:11:00,
2013-09-10 16:16:00,84.6,66.6,17.72,ENE,71,0.0,0.0,55,0.00,,---,0.00,VWS V14.01,2013-09-10 20:16:00,
2013-09-10 16:21:00,84.6,66.1,17.72,ENE,71,0.0,2.2,54,0.00,,---,0.00,VWS V14.01,2013-09-10 20:21:00,
2013-09-10 16:26:00,84.6,66.1,17.72,ENE,69,3.1,3.6,54,0.00,,---,0.00,VWS V14.01,2013-09-10 20:26:00,
2013-09-10 16:31:00,84.2,66.8,17.72,WSW,254,0.0,2.2,56,0.00,,---,0.00,VWS V14.01,2013-09-10 20:31:00,
2013-09-10 16:36:00,84.0,66.7,17.72,SSE,159,2.2,2.7,56,0.00,,---,0.00,VWS V14.01,2013-09-10 20:36:00,
2013-09-10 16:41:00,84.0,67.2,17.72,SE,129,3.1,3.6,57,0.00,,---,0.00,VWS V14.01,2013-09-10 20:41:00,
2013-09-10 16:46:00,84.0,68.2,17.72,SSW,209,0.0,0.0,59,0.00,,---,0.00,VWS V14.01,2013-09-10 20:46:00,
2013-09-10 16:51:00,84.0,68.2,17.72,SSW,203,0.0,0.0,59,0.00,,---,0.00,VWS V14.01,2013-09-10 20:51:00,
2013-09-10 16:56:00,83.7,68.3,17.72,ESE,113,0.0,3.1,60,0.00,,---,0.00,VWS V14.01,2013-09-10 20:56:00,
2013-09-10 17:01:00,82.6,68.2,17.72,ESE,113,0.0,0.0,62,0.00,,---,0.00,VWS V14.01,2013-09-10 21:01:00,
2013-09-10 17:06:00,81.5,67.7,17.72,ESE,113,2.2,2.2,63,0.00,,---,0.00,VWS V14.01,2013-09-10 21:06:00,
2013-09-10 17:11:00,81.1,67.4,17.72,South,185,3.6,3.6,63,0.00,,---,0.00,VWS V14.01,2013-09-10 21:11:00,
2013-09-10 17:16:00,81.1,67.4,17.72,SSW,207,2.2,2.2,63,0.00,,---,0.00,VWS V14.01,2013-09-10 21:16:00,
2013-09-10 17:21:00,81.0,66.7,17.72,WNW,301,0.0,2.2,62,0.00,,---,0.00,VWS V14.01,2013-09-10 21:21:00,
2013-09-10 17:26:00,80.8,67.0,17.72,NE,44,0.0,2.7,63,0.00,,---,0.00,VWS V14.01,2013-09-10 21:26:00,
2013-09-10 17:31:00,80.6,67.3,17.72,NE,51,0.0,0.0,64,0.00,,---,0.00,VWS V14.01,2013-09-10 21:31:00,
2013-09-10 17:36:00,79.9,67.5,17.72,NE,54,0.0,0.0,66,0.00,,---,0.00,VWS V14.01,2013-09-10 21:36:00,
2013-09-10 17:41:00,79.5,67.6,17.72,WSW,244,2.7,2.7,67,0.00,,---,0.00,VWS V14.01,2013-09-10 21:41:00,
2013-09-10 17:46:00,79.2,67.7,17.72,NNE,28,0.0,4.0,68,0.00,,---,0.00,VWS V14.01,2013-09-10 21:46:00,
2013-09-10 17:51:00,78.6,67.6,17.72,NNE,25,2.2,2.2,69,0.00,,---,0.00,VWS V14.01,2013-09-10 21:51:00,
2013-09-10 17:56:00,77.9,67.3,17.72,NNE,26,0.0,2.2,70,0.00,,---,0.00,VWS V14.01,2013-09-10 21:56:00,
2013-09-10 18:01:00,77.7,67.6,17.72,SW,224,0.0,2.7,71,0.00,,---,0.00,VWS V14.01,2013-09-10 22:01:00,
2013-09-10 18:06:00,77.4,67.6,17.72,SW,229,0.0,0.0,72,0.00,,---,0.00,VWS V14.01,2013-09-10 22:06:00,
2013-09-10 18:11:00,76.8,67.9,17.72,SW,229,0.0,0.0,74,0.00,,---,0.00,VWS V14.01,2013-09-10 22:11:00,
2013-09-10 18:16:00,76.5,67.9,17.72,SW,229,0.0,0.0,75,0.00,,---,0.00,VWS V14.01,2013-09-10 22:16:00,
2013-09-10 18:21:00,76.1,68.4,17.72,SW,229,0.0,0.0,77,0.00,,---,0.00,VWS V14.01,2013-09-10 22:21:00,
2013-09-10 18:26:00,75.9,68.2,17.72,SW,229,0.0,0.0,77,0.00,,---,0.00,VWS V14.01,2013-09-10 22:26:00,
2013-09-10 18:31:00,75.7,68.4,17.72,SW,229,0.0,2.2,78,0.00,,---,0.00,VWS V14.01,2013-09-10 22:31:00,
2013-09-10 18:36:00,75.6,68.2,17.72,SW,229,0.0,0.0,78,0.00,,---,0.00,VWS V14.01,2013-09-10 22:36:00,
2013-09-10 18:41:00,75.4,68.4,17.72,SW,229,0.0,0.0,79,0.00,,---,0.00,VWS V14.01,2013-09-10 22:41:00,
2013-09-10 18:46:00,75.2,68.2,17.72,SW,229,0.0,2.2,79,0.00,,---,0.00,VWS V14.01,2013-09-10 22:46:00,
2013-09-10 18:51:00,75.0,68.4,17.72,SW,229,0.0,0.0,80,0.00,,---,0.00,VWS V14.01,2013-09-10 22:51:00,
2013-09-10 18:56:00,74.8,68.3,17.72,SW,229,0.0,0.0,80,0.00,,---,0.00,VWS V14.01,2013-09-10 22:56:00,
2013-09-10 19:01:00,74.5,68.3,17.72,SW,229,0.0,0.0,81,0.00,,---,0.00,VWS V14.01,2013-09-10 23:01:00,
2013-09-10 19:06:00,74.3,68.4,17.72,SW,229,0.0,0.0,82,0.00,,---,0.00,VWS V14.01,2013-09-10 23:06:00,
2013-09-10 19:11:00,74.1,68.3,17.72,SW,229,0.0,0.0,82,0.00,,---,0.00,VWS V14.01,2013-09-10 23:11:00,
2013-09-10 19:16:00,73.8,68.3,17.72,SW,229,0.0,0.0,83,0.00,,---,0.00,VWS V14.01,2013-09-10 23:16:00,
2013-09-10 19:21:00,73.6,68.1,17.72,SW,229,0.0,0.0,83,0.00,,---,0.00,VWS V14.01,2013-09-10 23:21:00,
2013-09-10 19:26:00,73.4,68.3,17.72,SW,229,0.0,0.0,84,0.00,,---,0.00,VWS V14.01,2013-09-10 23:26:00,
2013-09-10 19:31:00,73.0,67.9,17.72,SW,229,0.0,0.0,84,0.00,,---,0.00,VWS V14.01,2013-09-10 23:31:00,
2013-09-10 19:36:00,72.9,68.1,17.72,SW,229,0.0,0.0,85,0.00,,---,0.00,VWS V14.01,2013-09-10 23:36:00,
2013-09-10 19:41:00,72.5,67.7,17.72,SW,229,0.0,0.0,85,0.00,,---,0.00,VWS V14.01,2013-09-10 23:41:00,
2013-09-10 19:46:00,72.3,67.9,17.72,SW,229,0.0,0.0,86,0.00,,---,0.00,VWS V14.01,2013-09-10 23:46:00,
2013-09-10 19:51:00,72.1,68.1,17.72,SW,229,0.0,0.0,87,0.00,,---,0.00,VWS V14.01,2013-09-10 23:51:00,
2013-09-10 19:56:00,72.0,67.9,17.72,SW,229,0.0,0.0,87,0.00,,---,0.00,VWS V14.01,2013-09-10 23:56:00,
2013-09-10 20:01:00,71.6,67.9,17.72,SW,229,0.0,0.0,88,0.00,,---,0.00,VWS V14.01,2013-09-11 00:01:00,
2013-09-10 20:06:00,71.4,68.0,17.72,SW,229,0.0,0.0,89,0.00,,---,0.00,VWS V14.01,2013-09-11 00:06:00,
2013-09-10 20:11:00,71.2,67.8,17.72,SW,229,0.0,0.0,89,0.00,,---,0.00,VWS V14.01,2013-09-11 00:11:00,
2013-09-10 20:16:00,71.1,68.0,17.72,SW,229,0.0,0.0,90,0.00,,---,0.00,VWS V14.01,2013-09-11 00:16:00,
2013-09-10 20:21:00,71.1,68.0,17.72,SW,229,0.0,0.0,90,0.00,,---,0.00,VWS V14.01,2013-09-11 00:21:00,
2013-09-10 20:26:00,70.9,68.1,17.72,SW,229,0.0,0.0,91,0.00,,---,0.00,VWS V14.01,2013-09-11 00:26:00,
2013-09-10 20:31:00,70.7,67.9,17.72,SW,229,0.0,0.0,91,0.00,,---,0.00,VWS V14.01,2013-09-11 00:31:00,
2013-09-10 20:36:00,70.5,68.1,17.72,SW,229,0.0,0.0,92,0.00,,---,0.00,VWS V14.01,2013-09-11 00:36:00,
2013-09-10 20:41:00,70.3,68.2,17.72,SW,229,0.0,0.0,93,0.00,,---,0.00,VWS V14.01,2013-09-11 00:41:00,
2013-09-10 20:46:00,70.2,68.1,17.72,SW,225,0.0,0.0,93,0.00,,---,0.00,VWS V14.01,2013-09-11 00:46:00,
2013-09-10 20:51:00,70.2,68.4,17.72,SW,225,0.0,0.0,94,0.00,,---,0.00,VWS V14.01,2013-09-11 00:51:00,
2013-09-10 20:56:00,70.0,68.5,17.72,SW,225,2.2,3.1,95,0.00,,---,0.00,VWS V14.01,2013-09-11 00:56:00,
2013-09-10 21:01:00,70.0,68.5,17.72,WSW,237,2.2,2.7,95,0.00,,---,0.00,VWS V14.01,2013-09-11 01:01:00,
2013-09-10 21:06:00,70.2,68.7,17.72,South,190,3.1,3.1,95,0.00,,---,0.00,VWS V14.01,2013-09-11 01:06:00,
2013-09-10 21:11:00,70.2,68.7,17.72,NE,49,3.1,3.1,95,0.00,,---,0.00,VWS V14.01,2013-09-11 01:11:00,
2013-09-10 21:16:00,70.0,68.5,17.72,NE,49,0.0,0.0,95,0.00,,---,0.00,VWS V14.01,2013-09-11 01:16:00,
2013-09-10 21:21:00,69.8,68.6,17.72,NE,56,0.0,0.0,96,0.00,,---,0.00,VWS V14.01,2013-09-11 01:21:00,
2013-09-10 21:26:00,69.8,68.6,17.72,NE,56,0.0,0.0,96,0.00,,---,0.00,VWS V14.01,2013-09-11 01:26:00,
2013-09-10 21:31:00,69.4,68.6,17.72,NE,56,0.0,0.0,97,0.00,,---,0.00,VWS V14.01,2013-09-11 01:31:00,
2013-09-10 21:36:00,69.3,68.7,17.72,NE,56,0.0,0.0,98,0.00,,---,0.00,VWS V14.01,2013-09-11 01:36:00,
2013-09-10 21:41:00,69.1,68.5,17.72,SSW,205,0.0,0.0,98,0.00,,---,0.00,VWS V14.01,2013-09-11 01:41:00,
2013-09-10 21:46:00,68.9,68.3,17.72,SSW,205,0.0,0.0,98,0.00,,---,0.00,VWS V14.01,2013-09-11 01:46:00,
2013-09-10 21:51:00,68.7,68.1,17.72,SSW,205,0.0,0.0,98,0.00,,---,0.00,VWS V14.01,2013-09-11 01:51:00,
2013-09-10 21:56:00,68.7,68.1,17.72,SSW,205,0.0,0.0,98,0.00,,---,0.00,VWS V14.01,2013-09-11 01:56:00,
2013-09-10 22:01:00,68.5,68.0,17.72,SSW,205,0.0,0.0,98,0.00,,---,0.00,VWS V14.01,2013-09-11 02:01:00,
2013-09-10 22:06:00,68.4,67.8,17.72,SSW,205,0.0,0.0,98,0.00,,---,0.00,VWS V14.01,2013-09-11 02:06:00,
2013-09-10 22:11:00,68.4,67.8,17.72,SSW,205,0.0,0.0,98,0.00,,---,0.00,VWS V14.01,2013-09-11 02:11:00,
2013-09-10 22:16:00,68.2,67.6,17.72,SSE,162,0.0,0.0,98,0.00,,---,0.00,VWS V14.01,2013-09-11 02:16:00,
2013-09-10 22:21:00,68.0,67.4,17.72,SSE,162,0.0,0.0,98,0.00,,---,0.00,VWS V14.01,2013-09-11 02:21:00,
2013-09-10 22:26:00,67.8,67.2,17.72,SSE,162,0.0,0.0,98,0.00,,---,0.00,VWS V14.01,2013-09-11 02:26:00,
2013-09-10 22:31:00,67.8,67.2,17.72,SSE,162,0.0,0.0,98,0.00,,---,0.00,VWS V14.01,2013-09-11 02:31:00,
2013-09-10 22:36:00,67.6,67.1,17.72,SSE,162,0.0,0.0,98,0.00,,---,0.00,VWS V14.01,2013-09-11 02:36:00,
2013-09-10 22:41:00,67.5,66.9,17.72,SSE,162,0.0,0.0,98,0.00,,---,0.00,VWS V14.01,2013-09-11 02:41:00,
2013-09-10 22:46:00,67.5,66.9,17.72,SSE,162,0.0,0.0,98,0.00,,---,0.00,VWS V14.01,2013-09-11 02:46:00,
2013-09-10 22:51:00,67.3,66.7,17.72,SSE,162,0.0,0.0,98,0.00,,---,0.00,VWS V14.01,2013-09-11 02:51:00,
2013-09-10 22:56:00,67.3,66.7,17.72,SSE,162,0.0,0.0,98,0.00,,---,0.00,VWS V14.01,2013-09-11 02:56:00,
2013-09-10 23:01:00,67.1,66.5,17.72,SSE,162,0.0,0.0,98,0.00,,---,0.00,VWS V14.01,2013-09-11 03:01:00,
2013-09-10 23:06:00,67.1,66.5,17.72,SSE,162,0.0,0.0,98,0.00,,---,0.00,VWS V14.01,2013-09-11 03:06:00,
2013-09-10 23:11:00,66.9,66.3,17.72,SSE,162,0.0,0.0,98,0.00,,---,0.00,VWS V14.01,2013-09-11 03:11:00,
2013-09-10 23:16:00,66.9,66.3,17.72,SSE,162,0.0,0.0,98,0.00,,---,0.00,VWS V14.01,2013-09-11 03:16:00,
2013-09-10 23:21:00,66.7,66.2,17.72,SSE,162,0.0,0.0,98,0.00,,---,0.00,VWS V14.01,2013-09-11 03:21:00,
2013-09-10 23:26:00,66.7,66.2,17.72,SSE,162,0.0,0.0,98,0.00,,---,0.00,VWS V14.01,2013-09-11 03:26:00,
2013-09-10 23:31:00,66.6,66.0,17.72,SSE,162,0.0,0.0,98,0.00,,---,0.00,VWS V14.01,2013-09-11 03:31:00,
2013-09-10 23:36:00,66.4,65.8,17.72,SSE,162,0.0,0.0,98,0.00,,---,0.00,VWS V14.01,2013-09-11 03:36:00,
2013-09-10 23:41:00,66.4,65.8,17.72,SSE,163,0.0,0.0,98,0.00,,---,0.00,VWS V14.01,2013-09-11 03:41:00,
2013-09-10 23:46:00,66.2,65.6,17.72,SSE,162,0.0,0.0,98,0.00,,---,0.00,VWS V14.01,2013-09-11 03:46:00,
2013-09-10 23:51:00,66.0,65.4,17.72,SSE,162,0.0,0.0,98,0.00,,---,0.00,VWS V14.01,2013-09-11 03:51:00,
2013-09-10 23:56:00,66.0,65.4,17.72,SSE,162,0.0,0.0,98,0.00,,---,0.00,VWS V14.01,2013-09-11 03:56:00,